createdAt,value
2023-05-01T00:00:22.694Z,3.30
2023-05-01T00:02:50.910Z,3.30
2023-05-01T00:05:19.166Z,3.20
2023-05-01T00:07:47.268Z,3.63
2023-05-01T00:10:17.140Z,2.90
2023-05-01T00:12:45.349Z,3.10
2023-05-01T00:15:13.518Z,3.50
2023-05-01T00:17:41.746Z,3.00
2023-05-01T00:20:10.512Z,3.33
2023-05-01T00:22:38.679Z,3.20
2023-05-01T00:25:07.253Z,3.00
2023-05-01T00:27:36.788Z,3.27
2023-05-01T00:30:05.255Z,3.20
2023-05-01T00:32:34.454Z,3.40
2023-05-01T00:35:02.658Z,2.87
2023-05-01T00:37:30.811Z,3.20
2023-05-01T00:39:59.212Z,2.90
2023-05-01T00:42:27.666Z,3.20
2023-05-01T00:44:57.197Z,2.87
2023-05-01T00:47:25.330Z,3.00
2023-05-01T00:49:54.659Z,3.33
2023-05-01T00:52:23.085Z,3.23
2023-05-01T00:54:52.206Z,3.30
2023-05-01T00:57:20.951Z,3.10
2023-05-01T00:59:49.558Z,3.00
2023-05-01T01:02:19.106Z,3.33
2023-05-01T01:04:48.479Z,3.60
2023-05-01T01:07:21.724Z,3.43
2023-05-01T01:09:55.581Z,3.70
2023-05-01T01:12:28.666Z,3.33
2023-05-01T01:14:59.961Z,3.67
2023-05-01T01:17:32.798Z,3.67
2023-05-01T01:20:20.976Z,3.73
2023-05-01T01:22:52.756Z,3.60
2023-05-01T01:25:36.234Z,3.83
2023-05-01T01:28:22.287Z,3.63
2023-05-01T01:31:07.099Z,3.60
2023-05-01T01:33:54.508Z,3.10
2023-05-01T01:36:29.218Z,3.70
2023-05-01T01:39:00.650Z,3.57
2023-05-01T01:41:32.215Z,4.03
2023-05-01T01:44:02.815Z,3.47
2023-05-01T01:46:32.857Z,3.77
2023-05-01T01:49:02.141Z,3.60
2023-05-01T01:51:31.942Z,3.70
2023-05-01T01:54:02.157Z,3.43
2023-05-01T01:56:32.936Z,3.73
2023-05-01T01:59:03.021Z,3.50
2023-05-01T02:01:31.658Z,3.63
2023-05-01T02:04:01.125Z,3.50
2023-05-01T02:06:29.939Z,3.40
2023-05-01T02:09:00.847Z,3.47
2023-05-01T02:11:30.353Z,3.50
2023-05-01T02:13:59.086Z,3.70
2023-05-01T02:16:28.866Z,3.20
2023-05-01T02:18:57.468Z,3.67
2023-05-01T02:21:26.339Z,3.80
2023-05-01T02:23:54.843Z,3.50
2023-05-01T02:26:26.519Z,3.63
2023-05-01T02:28:55.616Z,3.53
2023-05-01T02:31:24.112Z,3.60
2023-05-01T02:33:52.307Z,3.57
2023-05-01T02:36:20.524Z,3.60
2023-05-01T02:38:50.995Z,3.60
2023-05-01T02:41:21.244Z,3.47
2023-05-01T02:43:53.419Z,3.80
2023-05-01T02:46:22.425Z,3.50
2023-05-01T02:48:51.506Z,3.77
2023-05-01T02:51:21.395Z,3.67
2023-05-01T02:53:49.757Z,3.90
2023-05-01T02:56:18.023Z,3.57
2023-05-01T02:58:46.348Z,3.50
2023-05-01T03:01:16.088Z,4.17
2023-05-01T03:03:44.301Z,4.00
2023-05-01T03:06:14.161Z,3.97
2023-05-01T03:08:42.937Z,3.60
2023-05-01T03:11:11.146Z,4.27
2023-05-01T03:13:39.332Z,4.13
2023-05-01T03:16:07.805Z,3.90
2023-05-01T03:18:37.280Z,3.57
2023-05-01T03:21:05.525Z,3.87
2023-05-01T03:23:33.694Z,4.10
2023-05-01T03:26:01.972Z,3.77
2023-05-01T03:28:30.148Z,3.93
2023-05-01T03:30:58.351Z,3.70
2023-05-01T03:33:26.666Z,4.63
2023-05-01T03:36:03.122Z,4.20
2023-05-01T03:38:31.667Z,4.10
2023-05-01T03:40:59.929Z,3.67
2023-05-01T03:43:28.145Z,3.90
2023-05-01T03:45:56.389Z,4.10
2023-05-01T03:48:24.791Z,3.87
2023-05-01T03:50:53.032Z,4.23
2023-05-01T03:53:22.564Z,4.00
2023-05-01T03:55:50.754Z,4.10
2023-05-01T03:58:18.944Z,3.97
2023-05-01T04:00:47.051Z,3.93
2023-05-01T04:03:15.352Z,3.93
2023-05-01T04:05:43.583Z,3.80
2023-05-01T04:08:11.826Z,4.23
2023-05-01T04:10:41.298Z,4.20
2023-05-01T04:13:09.514Z,3.87
2023-05-01T04:15:38.538Z,3.97
2023-05-01T04:18:06.739Z,3.80
2023-05-01T04:20:35.716Z,4.07
2023-05-01T04:23:03.870Z,4.07
2023-05-01T04:25:31.978Z,4.07
2023-05-01T04:28:01.554Z,4.10
2023-05-01T04:30:29.756Z,4.47
2023-05-01T04:32:58.439Z,4.07
2023-05-01T04:35:26.882Z,3.53
2023-05-01T04:37:54.997Z,4.40
2023-05-01T04:40:23.204Z,4.17
2023-05-01T04:42:51.485Z,4.40
2023-05-01T04:45:21.338Z,4.33
2023-05-01T04:47:50.131Z,3.63
2023-05-01T04:50:18.285Z,3.93
2023-05-01T04:52:46.481Z,4.40
2023-05-01T04:55:14.898Z,3.70
2023-05-01T04:57:43.343Z,4.50
2023-05-01T05:00:12.056Z,3.80
2023-05-01T05:02:41.637Z,3.90
2023-05-01T05:05:10.890Z,3.83
2023-05-01T05:07:39.018Z,4.20
2023-05-01T05:10:07.714Z,4.53
2023-05-01T05:12:35.849Z,4.37
2023-05-01T05:15:04.108Z,4.77
2023-05-01T05:17:32.285Z,4.00
2023-05-01T05:20:01.809Z,4.30
2023-05-01T05:22:29.971Z,4.00
2023-05-01T05:25:00.052Z,4.23
2023-05-01T05:27:29.010Z,4.30
2023-05-01T05:29:57.322Z,4.30
2023-05-01T05:32:25.893Z,3.90
2023-05-01T05:34:54.161Z,4.03
2023-05-01T05:37:25.394Z,4.60
2023-05-01T05:39:53.696Z,4.20
2023-05-01T05:42:21.907Z,4.57
2023-05-01T05:44:50.101Z,4.10
2023-05-01T05:47:18.250Z,4.20
2023-05-01T05:49:46.416Z,4.47
2023-05-01T05:52:14.705Z,4.00
2023-05-01T05:54:44.296Z,4.47
2023-05-01T05:57:12.469Z,4.20
2023-05-01T05:59:40.748Z,4.13
2023-05-01T06:02:08.938Z,4.57
2023-05-01T06:04:37.134Z,4.20
2023-05-01T06:07:06.335Z,4.00
2023-05-01T06:09:34.544Z,4.60
2023-05-01T06:12:05.956Z,4.00
2023-05-01T06:14:34.124Z,4.60
2023-05-01T06:17:02.335Z,4.30
2023-05-01T06:19:30.469Z,4.20
2023-05-01T06:21:58.561Z,4.43
2023-05-01T06:24:27.395Z,4.60
2023-05-01T06:26:55.599Z,4.50
2023-05-01T06:29:25.054Z,4.37
2023-05-01T06:31:53.437Z,4.87
2023-05-01T06:34:21.670Z,4.43
2023-05-01T06:36:49.830Z,5.00
2023-05-01T06:39:17.949Z,5.97
2023-05-01T06:41:47.788Z,6.03
2023-05-01T06:44:16.207Z,4.97
2023-05-01T06:46:45.808Z,4.80
2023-05-01T06:49:13.975Z,4.60
2023-05-01T06:51:42.087Z,4.80
2023-05-01T06:54:10.298Z,5.07
2023-05-01T06:56:39.706Z,4.40
2023-05-01T06:59:07.912Z,4.87
2023-05-01T07:01:36.249Z,4.60
2023-05-01T07:04:05.903Z,4.90
2023-05-01T07:06:35.038Z,5.30
2023-05-01T07:09:03.446Z,4.90
2023-05-01T07:11:32.094Z,4.70
2023-05-01T07:14:00.880Z,4.60
2023-05-01T07:16:29.152Z,4.70
2023-05-01T07:18:57.334Z,5.43
2023-05-01T07:21:26.887Z,4.90
2023-05-01T07:23:55.030Z,5.30
2023-05-01T07:26:23.684Z,5.20
2023-05-01T07:28:51.848Z,4.87
2023-05-01T07:31:20.091Z,4.90
2023-05-01T07:33:49.330Z,4.93
2023-05-01T07:36:20.378Z,5.40
2023-05-01T07:38:50.040Z,5.63
2023-05-01T07:41:18.211Z,5.43
2023-05-01T07:43:46.381Z,5.10
2023-05-01T07:46:15.740Z,5.30
2023-05-01T07:48:44.309Z,5.03
2023-05-01T07:51:12.485Z,5.20
2023-05-01T07:53:42.243Z,5.37
2023-05-01T07:56:11.934Z,4.93
2023-05-01T07:58:41.482Z,5.37
2023-05-01T08:01:10.107Z,4.87
2023-05-01T08:03:38.554Z,6.47
2023-05-01T08:06:07.221Z,4.97
2023-05-01T08:08:35.499Z,5.97
2023-05-01T08:11:03.681Z,5.50
2023-05-01T08:13:33.354Z,5.33
2023-05-01T08:16:04.604Z,5.80
2023-05-01T08:18:32.807Z,5.73
2023-05-01T08:21:01.017Z,5.50
2023-05-01T08:23:29.235Z,5.60
2023-05-01T08:25:57.996Z,5.77
2023-05-01T08:28:26.211Z,5.63
2023-05-01T08:30:55.720Z,5.97
2023-05-01T08:33:24.306Z,5.20
2023-05-01T08:35:52.493Z,5.83
2023-05-01T08:38:20.719Z,6.20
2023-05-01T08:40:50.846Z,6.07
2023-05-01T08:43:19.121Z,7.10
2023-05-01T08:45:48.715Z,6.57
2023-05-01T08:48:19.336Z,6.50
2023-05-01T08:50:48.213Z,6.70
2023-05-01T08:53:18.443Z,6.80
2023-05-01T08:55:47.523Z,6.17
2023-05-01T08:58:16.460Z,6.43
2023-05-01T09:00:44.609Z,6.40
2023-05-01T09:03:14.116Z,6.93
2023-05-01T09:05:43.898Z,6.57
2023-05-01T09:08:12.070Z,7.33
2023-05-01T09:10:42.902Z,7.27
2023-05-01T09:13:11.175Z,8.30
2023-05-01T09:15:39.558Z,8.60
2023-05-01T09:18:08.134Z,8.90
2023-05-01T09:20:38.319Z,9.60
2023-05-01T09:23:07.809Z,9.70
2023-05-01T09:25:35.994Z,9.00
2023-05-01T09:28:07.144Z,9.20
2023-05-01T09:30:36.175Z,9.47
2023-05-01T09:33:08.401Z,8.83
2023-05-01T09:35:50.201Z,9.77
2023-05-01T09:38:23.738Z,9.70
2023-05-01T09:40:52.549Z,9.30
2023-05-01T09:43:27.655Z,9.77
2023-05-01T09:46:03.744Z,9.07
2023-05-01T09:48:34.791Z,9.50
2023-05-01T09:51:06.802Z,9.60
2023-05-01T09:53:41.894Z,8.67
2023-05-01T09:56:10.440Z,9.00
2023-05-01T09:58:39.206Z,9.20
2023-05-01T10:01:08.223Z,9.20
2023-05-01T10:03:36.706Z,8.67
2023-05-01T10:06:05.075Z,9.07
2023-05-01T10:08:47.337Z,9.20
2023-05-01T10:11:15.595Z,9.27
2023-05-01T10:13:43.924Z,9.33
2023-05-01T10:16:26.974Z,8.30
2023-05-01T10:18:56.641Z,9.77
2023-05-01T10:21:24.871Z,9.33
2023-05-01T10:23:54.894Z,9.73
2023-05-01T10:26:23.308Z,8.67
2023-05-01T10:28:51.549Z,8.77
2023-05-01T10:31:20.017Z,8.63
2023-05-01T10:33:48.933Z,8.10
2023-05-01T10:36:19.333Z,7.97
2023-05-01T10:38:48.501Z,8.93
2023-05-01T10:41:18.020Z,8.20
2023-05-01T10:43:46.153Z,8.07
2023-05-01T10:46:30.753Z,8.53
2023-05-01T10:48:59.350Z,8.10
2023-05-01T10:51:28.633Z,8.00
2023-05-01T10:54:15.673Z,8.53
2023-05-01T10:56:45.387Z,7.73
2023-05-01T10:59:13.586Z,7.53
2023-05-01T11:01:42.458Z,7.83
2023-05-01T11:04:31.539Z,7.70
2023-05-01T11:07:18.865Z,7.67
2023-05-01T11:09:48.905Z,7.33
2023-05-01T11:12:38.410Z,6.60
2023-05-01T11:15:08.239Z,7.30
2023-05-01T11:17:49.858Z,6.20
2023-05-01T11:20:36.971Z,6.00
2023-05-01T11:23:05.122Z,6.17
2023-05-01T11:25:33.857Z,6.50
2023-05-01T11:28:06.499Z,6.87
2023-05-01T11:30:38.221Z,5.97
2023-05-01T11:33:08.488Z,6.30
2023-05-01T11:35:39.130Z,7.03
2023-05-01T11:38:07.306Z,6.07
2023-05-01T11:40:36.095Z,6.20
2023-05-01T11:43:06.912Z,5.80
2023-05-01T11:45:36.020Z,5.00
2023-05-01T11:48:05.191Z,5.23
2023-05-01T11:50:35.598Z,5.73
2023-05-01T11:53:04.560Z,5.73
2023-05-01T11:55:33.005Z,4.93
2023-05-01T11:58:01.367Z,5.43
2023-05-01T12:00:31.626Z,5.40
2023-05-01T12:03:00.905Z,5.57
2023-05-01T12:05:29.773Z,5.20
2023-05-01T12:08:14.121Z,5.50
2023-05-01T12:10:43.053Z,5.85
2023-05-01T12:13:11.910Z,5.60
2023-05-01T12:15:45.267Z,5.73
2023-05-01T12:18:14.060Z,5.67
2023-05-01T12:20:43.037Z,5.27
2023-05-01T12:23:11.935Z,5.37
2023-05-01T12:25:40.840Z,5.53
2023-05-01T12:28:13.121Z,5.37
2023-05-01T12:30:42.866Z,5.67
2023-05-01T12:33:12.761Z,5.33
2023-05-01T12:35:41.745Z,5.47
2023-05-01T12:38:14.073Z,5.57
2023-05-01T12:40:42.734Z,5.88
2023-05-01T12:43:10.927Z,5.13
2023-05-01T12:45:43.199Z,5.38
2023-05-01T12:48:12.146Z,4.90
2023-05-01T12:50:40.580Z,5.00
2023-05-01T12:53:09.701Z,5.45
2023-05-01T12:55:47.851Z,6.07
2023-05-01T12:58:16.240Z,5.10
2023-05-01T13:00:47.256Z,5.30
2023-05-01T13:03:18.059Z,5.28
2023-05-01T13:05:53.258Z,5.65
2023-05-01T13:08:27.110Z,5.32
2023-05-01T13:10:57.072Z,5.18
2023-05-01T13:13:26.552Z,5.50
2023-05-01T13:15:56.179Z,5.55
2023-05-01T13:18:24.404Z,4.93
2023-05-01T13:20:52.599Z,5.10
2023-05-01T13:23:20.752Z,5.13
2023-05-01T13:25:49.353Z,5.13
2023-05-01T13:28:20.882Z,5.00
2023-05-01T13:30:49.156Z,5.00
2023-05-01T13:33:18.704Z,5.60
2023-05-01T13:35:47.130Z,5.32
2023-05-01T13:38:15.306Z,4.83
2023-05-01T13:40:43.447Z,5.40
2023-05-01T13:43:15.801Z,5.10
2023-05-01T13:45:44.072Z,5.40
2023-05-01T13:48:12.468Z,4.68
2023-05-01T13:50:42.842Z,5.07
2023-05-01T13:53:11.228Z,5.07
2023-05-01T13:55:40.774Z,5.53
2023-05-01T13:58:08.972Z,5.60
2023-05-01T14:00:37.397Z,5.07
2023-05-01T14:03:05.668Z,4.95
2023-05-01T14:05:33.912Z,5.88
2023-05-01T14:08:03.485Z,5.90
2023-05-01T14:10:31.688Z,5.38
2023-05-01T14:13:00.540Z,5.97
2023-05-01T14:15:29.663Z,6.60
2023-05-01T14:18:00.835Z,6.63
2023-05-01T14:20:29.191Z,7.20
2023-05-01T14:22:58.685Z,7.18
2023-05-01T14:25:29.830Z,7.97
2023-05-01T14:27:58.730Z,7.18
2023-05-01T14:30:28.426Z,6.95
2023-05-01T14:32:56.741Z,7.53
2023-05-01T14:35:25.555Z,7.60
2023-05-01T14:37:54.896Z,8.13
2023-05-01T14:40:25.128Z,7.43
2023-05-01T14:42:55.056Z,7.53
2023-05-01T14:45:23.247Z,6.95
2023-05-01T14:47:51.957Z,7.80
2023-05-01T14:50:21.331Z,9.73
2023-05-01T14:52:49.679Z,10.65
2023-05-01T14:55:19.756Z,9.52
2023-05-01T14:57:48.524Z,11.90
2023-05-01T15:00:18.567Z,11.90
2023-05-01T15:02:47.222Z,11.35
2023-05-01T15:05:15.417Z,10.45
2023-05-01T15:07:43.722Z,11.02
2023-05-01T15:10:12.335Z,11.18
2023-05-01T15:12:40.526Z,10.05
2023-05-01T15:15:09.520Z,9.85
2023-05-01T15:17:39.026Z,10.38
2023-05-01T15:20:07.958Z,10.85
2023-05-01T15:22:36.100Z,11.27
2023-05-01T15:25:04.626Z,12.43
2023-05-01T15:27:32.816Z,11.85
2023-05-01T15:30:01.342Z,12.40
2023-05-01T15:32:29.620Z,12.13
2023-05-01T15:34:59.376Z,12.98
2023-05-01T15:37:27.671Z,12.88
2023-05-01T15:39:56.447Z,11.75
2023-05-01T15:42:24.676Z,13.38
2023-05-01T15:44:53.139Z,12.88
2023-05-01T15:47:21.341Z,12.95
2023-05-01T15:49:49.576Z,13.60
2023-05-01T15:52:19.033Z,12.95
2023-05-01T15:54:48.045Z,13.98
2023-05-01T15:57:17.726Z,13.68
2023-05-01T15:59:45.999Z,13.75
2023-05-01T16:02:14.272Z,14.25
2023-05-01T16:04:42.464Z,13.48
2023-05-01T16:07:10.687Z,14.93
2023-05-01T16:09:40.447Z,13.40
2023-05-01T16:12:09.326Z,15.43
2023-05-01T16:14:37.507Z,14.48
2023-05-01T16:17:07.304Z,14.25
2023-05-01T16:19:36.976Z,14.52
2023-05-01T16:22:05.818Z,15.10
2023-05-01T16:24:34.123Z,14.60
2023-05-01T16:27:03.664Z,15.02
2023-05-01T16:29:34.129Z,15.05
2023-05-01T16:32:02.684Z,14.88
2023-05-01T16:34:30.855Z,15.02
2023-05-01T16:36:59.043Z,14.90
2023-05-01T16:39:27.239Z,16.77
2023-05-01T16:41:56.287Z,16.93
2023-05-01T16:44:25.868Z,17.55
2023-05-01T16:46:54.971Z,19.17
2023-05-01T16:49:23.434Z,18.75
2023-05-01T16:51:56.376Z,19.05
2023-05-01T16:54:25.252Z,19.83
2023-05-01T16:56:53.404Z,20.48
2023-05-01T16:59:23.132Z,19.30
2023-05-01T17:01:52.888Z,20.52
2023-05-01T17:04:21.352Z,20.05
2023-05-01T17:06:50.597Z,20.10
2023-05-01T17:09:18.802Z,19.90
2023-05-01T17:11:47.084Z,21.10
2023-05-01T17:14:15.271Z,20.65
2023-05-01T17:16:43.540Z,19.87
2023-05-01T17:19:13.607Z,20.17
2023-05-01T17:21:43.385Z,21.60
2023-05-01T17:24:13.047Z,22.73
2023-05-01T17:26:41.332Z,23.07
2023-05-01T17:29:09.528Z,21.30
2023-05-01T17:31:37.724Z,22.70
2023-05-01T17:34:05.953Z,23.80
2023-05-01T17:36:35.462Z,22.40
2023-05-01T17:39:04.128Z,20.93
2023-05-01T17:41:32.272Z,23.70
2023-05-01T17:44:00.686Z,20.43
2023-05-01T17:46:29.081Z,20.97
2023-05-01T17:48:57.334Z,21.00
2023-05-01T17:51:25.518Z,19.17
2023-05-01T17:53:55.067Z,19.60
2023-05-01T17:56:23.246Z,18.97
2023-05-01T17:58:51.461Z,18.70
2023-05-01T18:01:19.687Z,19.40
2023-05-01T18:03:49.065Z,19.40
2023-05-01T18:06:17.945Z,20.53
2023-05-01T18:08:46.254Z,20.00
2023-05-01T18:11:15.781Z,19.27
2023-05-01T18:13:47.276Z,18.73
2023-05-01T18:16:15.857Z,19.90
2023-05-01T18:18:44.369Z,18.10
2023-05-01T18:21:12.692Z,19.83
2023-05-01T18:23:40.898Z,20.07
2023-05-01T18:26:09.149Z,20.27
2023-05-01T18:28:38.657Z,21.40
2023-05-01T18:31:06.939Z,20.53
2023-05-01T18:33:35.264Z,22.10
2023-05-01T18:36:03.439Z,22.10
2023-05-01T18:38:31.755Z,24.20
2023-05-01T18:40:59.926Z,24.70
2023-05-01T18:43:28.516Z,24.60
2023-05-01T18:45:58.576Z,25.07
2023-05-01T18:48:26.827Z,25.80
2023-05-01T18:51:07.259Z,24.57
2023-05-01T18:53:36.973Z,24.27
2023-05-01T18:56:05.973Z,25.50
2023-05-01T18:58:34.139Z,25.60
2023-05-01T19:01:03.656Z,24.87
2023-05-01T19:03:31.978Z,25.17
2023-05-01T19:06:00.231Z,26.70
2023-05-01T19:08:28.814Z,28.17
2023-05-01T19:10:56.988Z,26.23
2023-05-01T19:13:25.081Z,26.57
2023-05-01T19:15:53.552Z,27.03
2023-05-01T19:18:23.100Z,26.80
2023-05-01T19:20:51.237Z,26.23
2023-05-01T19:23:19.423Z,27.03
2023-05-01T19:25:47.607Z,25.87
2023-05-01T19:28:15.818Z,24.97
2023-05-01T19:30:43.955Z,24.43
2023-05-01T19:33:12.239Z,23.10
2023-05-01T19:35:41.762Z,24.23
2023-05-01T19:38:09.972Z,22.83
2023-05-01T19:40:39.641Z,22.37
2023-05-01T19:43:07.860Z,22.10
2023-05-01T19:45:36.231Z,19.90
2023-05-01T19:48:04.442Z,19.90
2023-05-01T19:50:33.394Z,21.73
2023-05-01T19:53:05.250Z,21.93
2023-05-01T19:55:33.480Z,22.90
2023-05-01T19:58:01.677Z,22.23
2023-05-01T20:00:29.783Z,23.10
2023-05-01T20:02:58.222Z,22.30
2023-05-01T20:05:28.103Z,22.70
2023-05-01T20:07:57.757Z,22.70
2023-05-01T20:10:27.467Z,22.13
2023-05-01T20:12:55.769Z,20.00
2023-05-01T20:15:24.682Z,18.20
2023-05-01T20:17:52.924Z,18.60
2023-05-01T20:20:21.291Z,19.37
2023-05-01T20:22:49.445Z,21.97
2023-05-01T20:25:17.598Z,21.00
2023-05-01T20:27:47.123Z,19.90
2023-05-01T20:30:15.362Z,21.97
2023-05-01T20:32:44.194Z,20.63
2023-05-01T20:35:12.685Z,21.77
2023-05-01T20:37:41.370Z,21.97
2023-05-01T20:40:11.544Z,21.20
2023-05-01T20:42:39.926Z,20.60
2023-05-01T20:45:10.414Z,20.97
2023-05-01T20:47:38.608Z,18.93
2023-05-01T20:50:07.829Z,17.67
2023-05-01T20:52:36.028Z,19.20
2023-05-01T20:55:04.488Z,17.70
2023-05-01T20:57:33.331Z,15.53
2023-05-01T21:00:04.218Z,13.10
2023-05-01T21:02:34.007Z,12.47
2023-05-01T21:05:02.253Z,12.37
2023-05-01T21:07:30.937Z,11.30
2023-05-01T21:09:59.334Z,12.27
2023-05-01T21:12:27.608Z,12.30
2023-05-01T21:14:55.765Z,11.57
2023-05-01T21:17:24.148Z,11.63
2023-05-01T21:19:53.865Z,11.27
2023-05-01T21:22:22.741Z,10.73
2023-05-01T21:24:53.811Z,12.07
2023-05-01T21:27:22.237Z,11.40
2023-05-01T21:29:53.141Z,12.07
2023-05-01T21:32:21.319Z,12.57
2023-05-01T21:34:49.476Z,13.07
2023-05-01T21:37:19.023Z,12.30
2023-05-01T21:39:47.199Z,13.20
2023-05-01T21:42:16.137Z,13.63
2023-05-01T21:44:44.386Z,13.30
2023-05-01T21:47:12.675Z,13.77
2023-05-01T21:49:41.282Z,14.00
2023-05-01T21:52:09.796Z,13.63
2023-05-01T21:54:39.944Z,13.47
2023-05-01T21:57:08.152Z,13.90
2023-05-01T21:59:37.912Z,13.53
2023-05-01T22:02:07.028Z,12.67
2023-05-01T22:04:35.205Z,12.30
2023-05-01T22:07:03.489Z,13.30
2023-05-01T22:09:31.616Z,11.30
2023-05-01T22:12:01.372Z,10.90
2023-05-01T22:14:40.279Z,10.93
2023-05-01T22:17:14.800Z,9.80
2023-05-01T22:19:43.418Z,10.97
2023-05-01T22:22:11.599Z,11.13
2023-05-01T22:24:39.816Z,11.53
2023-05-01T22:27:09.528Z,11.23
2023-05-01T22:29:37.717Z,10.87
2023-05-01T22:32:06.331Z,10.00
2023-05-01T22:34:34.586Z,9.87
2023-05-01T22:37:02.873Z,9.87
2023-05-01T22:39:31.113Z,10.13
2023-05-01T22:41:59.854Z,11.20
2023-05-01T22:44:30.480Z,9.77
2023-05-01T22:46:59.351Z,10.00
2023-05-01T22:49:28.612Z,8.03
2023-05-01T22:51:57.242Z,9.10
2023-05-01T22:54:25.420Z,8.40
2023-05-01T22:56:53.641Z,8.80
2023-05-01T22:59:22.329Z,8.97
2023-05-01T23:01:51.878Z,9.73
2023-05-01T23:04:20.131Z,9.80
2023-05-01T23:06:48.420Z,9.17
2023-05-01T23:09:16.780Z,9.60
2023-05-01T23:11:48.493Z,9.73
2023-05-01T23:14:18.785Z,9.30
2023-05-01T23:16:47.015Z,9.87
2023-05-01T23:19:23.296Z,10.77
2023-05-01T23:21:52.085Z,10.60
2023-05-01T23:24:22.055Z,10.47
2023-05-01T23:26:50.197Z,10.83
2023-05-01T23:29:20.032Z,11.17
2023-05-01T23:31:48.734Z,11.33
2023-05-01T23:34:17.848Z,11.17
2023-05-01T23:36:48.705Z,11.23
2023-05-01T23:39:17.003Z,12.47
2023-05-01T23:41:45.450Z,11.73
2023-05-01T23:44:13.548Z,13.27
2023-05-01T23:46:41.770Z,13.00
2023-05-01T23:49:09.958Z,12.73
2023-05-01T23:51:38.429Z,13.10
2023-05-01T23:54:07.968Z,13.30
2023-05-01T23:56:36.146Z,12.50
2023-05-01T23:59:04.287Z,11.90
